createdAt,value
2018-06-19T00:01:50.088Z,2.80
2018-06-19T00:04:19.861Z,2.70
2018-06-19T00:06:49.628Z,2.70
2018-06-19T00:09:19.387Z,2.40
2018-06-19T00:11:49.116Z,2.47
2018-06-19T00:14:18.804Z,2.90
2018-06-19T00:16:48.772Z,2.77
2018-06-19T00:19:18.511Z,2.33
2018-06-19T00:21:54.328Z,2.70
2018-06-19T00:24:24.024Z,2.67
2018-06-19T00:26:53.784Z,2.53
2018-06-19T00:29:23.603Z,3.47
2018-06-19T00:31:53.360Z,3.60
2018-06-19T00:34:22.968Z,3.93
2018-06-19T00:36:52.656Z,4.70
2018-06-19T00:39:22.280Z,6.17
2018-06-19T00:41:51.940Z,6.70
2018-06-19T00:44:21.607Z,8.00
2018-06-19T00:46:52.708Z,11.23
2018-06-19T00:49:22.485Z,9.70
2018-06-19T00:51:52.122Z,9.17
2018-06-19T00:54:21.852Z,10.60
2018-06-19T00:56:56.230Z,8.70
2018-06-19T00:59:26.217Z,11.30
2018-06-19T01:01:57.200Z,11.87
2018-06-19T01:04:26.855Z,11.60
2018-06-19T01:06:56.501Z,11.87
2018-06-19T01:09:26.203Z,13.90
2018-06-19T01:11:55.832Z,11.97
2018-06-19T01:14:25.480Z,12.80
2018-06-19T01:16:55.155Z,13.40
2018-06-19T01:19:24.783Z,14.47
2018-06-19T01:21:54.444Z,14.17
2018-06-19T01:24:24.116Z,13.20
2018-06-19T01:26:53.777Z,15.23
2018-06-19T01:29:23.410Z,12.23
2018-06-19T01:31:53.110Z,11.97
2018-06-19T01:34:22.744Z,11.60
2018-06-19T01:36:52.454Z,11.47
2018-06-19T01:39:22.129Z,10.87
2018-06-19T01:41:51.788Z,10.37
2018-06-19T01:44:21.420Z,11.67
2018-06-19T01:46:51.132Z,10.73
2018-06-19T01:49:20.804Z,10.93
2018-06-19T01:51:50.446Z,11.13
2018-06-19T01:54:20.127Z,11.33
2018-06-19T01:56:49.776Z,10.20
2018-06-19T01:59:19.419Z,11.10
2018-06-19T02:01:49.094Z,11.43
2018-06-19T02:04:18.744Z,10.40
2018-06-19T02:06:48.388Z,10.07
2018-06-19T02:09:18.052Z,10.43
2018-06-19T02:11:47.718Z,10.47
2018-06-19T02:14:17.336Z,11.37
2018-06-19T02:16:47.015Z,11.23
2018-06-19T02:19:16.670Z,10.90
2018-06-19T02:21:46.314Z,11.90
2018-06-19T02:24:15.968Z,10.00
2018-06-19T02:26:45.660Z,10.30
2018-06-19T02:29:15.332Z,10.87
2018-06-19T02:31:44.988Z,9.90
2018-06-19T02:34:14.610Z,8.73
2018-06-19T02:36:44.312Z,9.47
2018-06-19T02:39:13.939Z,9.50
2018-06-19T02:41:43.576Z,10.17
2018-06-19T02:44:13.232Z,8.13
2018-06-19T02:46:42.844Z,9.50
2018-06-19T02:49:12.484Z,10.17
2018-06-19T02:51:42.158Z,9.77
2018-06-19T02:54:11.783Z,10.33
2018-06-19T02:56:41.440Z,9.90
2018-06-19T02:59:11.110Z,9.53
2018-06-19T03:01:40.744Z,9.43
2018-06-19T03:04:10.475Z,9.20
2018-06-19T03:06:40.152Z,9.57
2018-06-19T03:09:11.176Z,9.07
2018-06-19T03:11:40.896Z,9.43
2018-06-19T03:14:10.557Z,8.57
2018-06-19T03:16:40.228Z,7.57
2018-06-19T03:19:09.859Z,7.63
2018-06-19T03:21:39.476Z,8.67
2018-06-19T03:24:09.132Z,8.27
2018-06-19T03:26:38.887Z,8.47
2018-06-19T03:29:08.520Z,8.40
2018-06-19T03:31:38.203Z,8.57
2018-06-19T03:34:07.844Z,8.20
2018-06-19T03:36:37.496Z,7.90
2018-06-19T03:39:10.339Z,8.20
2018-06-19T03:41:40.006Z,8.43
2018-06-19T03:44:09.932Z,7.53
2018-06-19T03:46:39.591Z,7.90
2018-06-19T03:49:09.217Z,8.17
2018-06-19T03:51:38.827Z,7.47
2018-06-19T03:54:08.521Z,7.60
2018-06-19T03:56:38.141Z,6.57
2018-06-19T03:59:07.775Z,7.00
2018-06-19T04:01:37.432Z,7.73
2018-06-19T04:04:07.173Z,7.47
2018-06-19T04:06:36.808Z,7.60
2018-06-19T04:09:08.452Z,7.07
2018-06-19T04:11:38.527Z,6.93
2018-06-19T04:14:08.326Z,8.83
2018-06-19T04:16:37.967Z,7.93
2018-06-19T04:19:07.590Z,9.00
2018-06-19T04:21:37.283Z,8.57
2018-06-19T04:24:06.963Z,8.17
2018-06-19T04:26:36.592Z,9.60
2018-06-19T04:29:06.300Z,8.47
2018-06-19T04:31:35.936Z,9.33
2018-06-19T04:34:05.681Z,9.10
2018-06-19T04:36:35.360Z,10.37
2018-06-19T04:39:08.018Z,9.77
2018-06-19T04:41:37.667Z,10.30
2018-06-19T04:44:07.341Z,9.33
2018-06-19T04:46:37.231Z,9.17
2018-06-19T04:49:06.872Z,9.40
2018-06-19T04:51:36.471Z,8.13
2018-06-19T04:54:06.160Z,8.73
2018-06-19T04:56:35.796Z,7.33
2018-06-19T04:59:05.423Z,6.47
2018-06-19T05:01:35.095Z,6.77
2018-06-19T05:04:04.801Z,7.20
2018-06-19T05:06:34.473Z,6.57
2018-06-19T05:09:05.136Z,5.50
2018-06-19T05:11:34.772Z,6.83
2018-06-19T05:14:04.412Z,7.40
2018-06-19T05:16:34.108Z,6.60
2018-06-19T05:19:03.737Z,6.90
2018-06-19T05:21:33.384Z,6.77
2018-06-19T05:24:03.984Z,5.53
2018-06-19T05:26:33.616Z,5.77
2018-06-19T05:29:03.274Z,5.90
2018-06-19T05:31:32.949Z,6.40
2018-06-19T05:34:02.620Z,5.20
2018-06-19T05:36:32.328Z,5.63
2018-06-19T05:39:01.963Z,5.03
2018-06-19T05:41:31.603Z,5.83
2018-06-19T05:44:01.268Z,4.93
2018-06-19T05:46:30.929Z,5.07
2018-06-19T05:49:00.572Z,4.73
2018-06-19T05:51:30.276Z,4.10
2018-06-19T05:54:00.120Z,4.70
2018-06-19T05:56:29.779Z,5.27
2018-06-19T05:58:59.493Z,4.20
2018-06-19T06:01:29.244Z,4.40
2018-06-19T06:03:58.919Z,4.27
2018-06-19T06:06:28.598Z,4.33
2018-06-19T06:08:58.208Z,4.77
2018-06-19T06:11:27.815Z,3.97
2018-06-19T06:13:57.632Z,4.37
2018-06-19T06:16:27.369Z,4.27
2018-06-19T06:18:56.944Z,3.87
2018-06-19T06:21:26.628Z,3.80
2018-06-19T06:23:56.251Z,3.33
2018-06-19T06:26:25.966Z,3.47
2018-06-19T06:28:55.657Z,3.73
2018-06-19T06:31:25.310Z,3.93
2018-06-19T06:33:54.979Z,3.47
2018-06-19T06:36:24.851Z,3.60
2018-06-19T06:38:54.497Z,3.33
2018-06-19T06:41:24.166Z,3.83
2018-06-19T06:43:53.868Z,3.70
2018-06-19T06:46:23.493Z,3.70
2018-06-19T06:48:53.175Z,3.00
2018-06-19T06:51:22.819Z,3.40
2018-06-19T06:53:52.468Z,3.07
2018-06-19T06:56:22.201Z,2.80
2018-06-19T06:58:51.839Z,2.73
2018-06-19T07:01:21.477Z,2.87
2018-06-19T07:03:51.171Z,3.10
2018-06-19T07:06:20.797Z,2.33
2018-06-19T07:08:50.435Z,2.33
2018-06-19T07:11:20.100Z,2.37
2018-06-19T07:13:49.740Z,2.33
2018-06-19T07:16:19.451Z,2.57
2018-06-19T07:18:49.195Z,2.20
2018-06-19T07:21:18.788Z,2.37
2018-06-19T07:23:48.415Z,2.30
2018-06-19T07:26:18.126Z,2.40
2018-06-19T07:28:47.758Z,2.90
2018-06-19T07:31:17.400Z,2.40
2018-06-19T07:33:47.137Z,2.57
2018-06-19T07:36:16.765Z,2.97
2018-06-19T07:38:46.393Z,2.70
2018-06-19T07:41:16.065Z,2.50
2018-06-19T07:43:45.739Z,2.37
2018-06-19T07:46:15.392Z,2.40
2018-06-19T07:48:45.305Z,2.60
2018-06-19T07:51:14.967Z,2.77
2018-06-19T07:53:44.633Z,2.67
2018-06-19T07:56:14.335Z,2.67
2018-06-19T07:58:43.957Z,2.83
2018-06-19T08:01:13.564Z,2.67
2018-06-19T08:03:43.225Z,2.60
2018-06-19T08:06:12.850Z,2.80
2018-06-19T08:08:42.547Z,2.67
2018-06-19T08:11:12.240Z,3.10
2018-06-19T08:13:41.864Z,2.67
2018-06-19T08:16:11.476Z,2.60
2018-06-19T08:18:41.155Z,2.83
2018-06-19T08:21:11.720Z,2.73
2018-06-19T08:23:41.672Z,2.67
2018-06-19T08:26:11.307Z,2.77
2018-06-19T08:28:40.923Z,2.67
2018-06-19T08:31:10.600Z,2.87
2018-06-19T08:33:40.248Z,2.90
2018-06-19T08:36:09.892Z,2.70
2018-06-19T08:38:39.587Z,3.30
2018-06-19T08:41:09.242Z,2.97
2018-06-19T08:43:38.992Z,2.90
2018-06-19T08:46:08.651Z,3.60
2018-06-19T08:48:38.272Z,3.40
2018-06-19T08:51:07.893Z,3.40
2018-06-19T08:53:37.572Z,3.40
2018-06-19T08:56:07.345Z,2.93
2018-06-19T08:58:36.963Z,3.70
2018-06-19T09:01:06.740Z,3.43
2018-06-19T09:03:36.376Z,3.00
2018-06-19T09:06:06.163Z,3.57
2018-06-19T09:08:35.818Z,4.40
2018-06-19T09:11:05.492Z,3.90
2018-06-19T09:13:35.210Z,3.80
2018-06-19T09:16:04.969Z,4.20
2018-06-19T09:18:35.245Z,4.40
2018-06-19T09:21:05.326Z,4.70
2018-06-19T09:23:34.982Z,5.47
2018-06-19T09:26:04.669Z,5.03
2018-06-19T09:28:34.299Z,5.70
2018-06-19T09:31:03.995Z,4.90
2018-06-19T09:33:33.721Z,5.87
2018-06-19T09:36:03.393Z,5.70
2018-06-19T09:38:33.060Z,6.03
2018-06-19T09:41:02.752Z,6.10
2018-06-19T09:43:32.415Z,5.87
2018-06-19T09:46:02.151Z,5.63
2018-06-19T09:48:31.791Z,5.80
2018-06-19T09:51:01.466Z,6.60
2018-06-19T09:53:31.556Z,6.43
2018-06-19T09:56:01.766Z,5.73
2018-06-19T09:58:31.548Z,6.40
2018-06-19T10:01:03.356Z,6.13
2018-06-19T10:03:33.642Z,6.57
2018-06-19T10:06:03.327Z,5.93
2018-06-19T10:08:32.988Z,5.67
2018-06-19T10:11:02.689Z,5.90
2018-06-19T10:13:32.312Z,5.60
2018-06-19T10:16:01.948Z,5.50
2018-06-19T10:18:31.676Z,5.30
2018-06-19T10:21:01.324Z,5.87
2018-06-19T10:23:30.948Z,5.77
2018-06-19T10:26:00.671Z,5.90
2018-06-19T10:28:30.330Z,6.13
2018-06-19T10:30:59.961Z,5.20
2018-06-19T10:33:29.632Z,6.07
2018-06-19T10:35:59.247Z,5.17
2018-06-19T10:38:28.848Z,5.47
2018-06-19T10:40:58.555Z,4.23
2018-06-19T10:43:28.200Z,4.60
2018-06-19T10:45:57.892Z,4.77
2018-06-19T10:48:27.567Z,5.30
2018-06-19T10:50:57.172Z,4.43
2018-06-19T10:53:26.785Z,4.60
2018-06-19T10:55:56.457Z,4.33
2018-06-19T10:58:26.081Z,4.97
2018-06-19T11:00:55.729Z,5.23
2018-06-19T11:03:25.428Z,5.20
2018-06-19T11:05:55.066Z,5.40
2018-06-19T11:08:24.755Z,4.97
2018-06-19T11:10:54.363Z,5.40
2018-06-19T11:13:23.993Z,4.50
2018-06-19T11:15:53.569Z,4.40
2018-06-19T11:18:23.249Z,4.17
2018-06-19T11:20:52.882Z,4.87
2018-06-19T11:23:22.501Z,5.00
2018-06-19T11:25:52.155Z,4.70
2018-06-19T11:28:21.778Z,4.10
2018-06-19T11:30:51.396Z,4.73
2018-06-19T11:33:21.039Z,5.20
2018-06-19T11:35:50.724Z,5.70
2018-06-19T11:38:20.367Z,5.57
2018-06-19T11:40:50.078Z,5.80
2018-06-19T11:43:19.759Z,6.17
2018-06-19T11:45:49.428Z,6.70
2018-06-19T11:48:19.112Z,6.23
2018-06-19T11:50:48.733Z,7.00
2018-06-19T11:53:18.360Z,7.27
2018-06-19T11:55:48.057Z,6.67
2018-06-19T11:58:17.700Z,6.63
2018-06-19T12:00:47.433Z,7.43
2018-06-19T12:03:17.176Z,5.90
2018-06-19T12:05:46.881Z,6.77
2018-06-19T12:08:16.532Z,6.53
2018-06-19T12:10:46.937Z,6.73
2018-06-19T12:13:16.556Z,7.70
2018-06-19T12:15:46.296Z,7.90
2018-06-19T12:18:16.049Z,7.80
2018-06-19T12:20:45.709Z,8.10
2018-06-19T12:23:15.436Z,7.40
2018-06-19T12:25:45.085Z,7.30
2018-06-19T12:28:14.812Z,7.43
2018-06-19T12:30:44.482Z,6.53
2018-06-19T12:33:14.099Z,6.93
2018-06-19T12:35:43.725Z,7.20
2018-06-19T12:38:13.416Z,6.80
2018-06-19T12:40:43.056Z,7.60
2018-06-19T12:43:12.730Z,7.03
2018-06-19T12:45:42.441Z,8.20
2018-06-19T12:48:12.073Z,8.17
2018-06-19T12:51:58.969Z,8.70
2018-06-19T12:56:42.355Z,9.27
2018-06-19T12:59:12.081Z,9.20
2018-06-19T13:01:41.724Z,9.33
2018-06-19T13:04:22.456Z,8.83
2018-06-19T13:06:52.075Z,9.47
2018-06-19T13:09:21.721Z,10.07
2018-06-19T13:11:51.404Z,9.23
2018-06-19T13:14:32.049Z,10.20
2018-06-19T13:17:12.596Z,8.90
2018-06-19T13:19:53.304Z,10.00
2018-06-19T13:22:22.976Z,9.67
2018-06-19T13:24:52.648Z,8.83
2018-06-19T13:27:22.333Z,8.08
2018-06-19T13:30:09.349Z,9.00
2018-06-19T13:32:39.593Z,9.50
2018-06-19T13:35:09.269Z,9.10
2018-06-19T13:37:38.881Z,9.00
2018-06-19T13:42:19.825Z,10.00
2018-06-19T13:45:05.460Z,10.18
2018-06-19T13:47:35.145Z,10.00
2018-06-19T13:50:04.851Z,7.80
2018-06-19T13:52:34.488Z,8.18
2018-06-19T13:55:31.120Z,9.43
2018-06-19T13:58:11.823Z,9.33
2018-06-19T14:00:41.488Z,9.63
2018-06-19T14:03:11.125Z,10.25
2018-06-19T14:05:40.751Z,8.78
2018-06-19T14:08:17.320Z,10.82
2018-06-19T14:10:58.076Z,11.43
2018-06-19T14:13:27.783Z,11.95
2018-06-19T14:15:57.438Z,10.45
2018-06-19T14:18:27.108Z,10.03
2018-06-19T14:20:56.725Z,9.30
2018-06-19T14:23:26.352Z,9.40
2018-06-19T14:25:56.036Z,9.70
2018-06-19T14:28:25.653Z,9.48
2018-06-19T14:30:55.359Z,9.75
2018-06-19T14:33:24.977Z,9.90
2018-06-19T14:35:54.620Z,10.23
2018-06-19T14:38:24.292Z,9.30
2018-06-19T14:40:53.904Z,9.95
2018-06-19T14:43:23.557Z,11.08
2018-06-19T14:45:53.397Z,10.75
2018-06-19T14:48:23.057Z,10.38
2018-06-19T14:50:52.655Z,10.13
2018-06-19T14:53:22.315Z,10.28
2018-06-19T14:55:51.927Z,10.23
2018-06-19T14:58:21.556Z,9.03
2018-06-19T15:00:51.224Z,10.10
2018-06-19T15:03:20.856Z,10.20
2018-06-19T15:05:50.478Z,11.03
2018-06-19T15:08:20.134Z,11.53
2018-06-19T15:10:49.764Z,10.80
2018-06-19T15:13:19.388Z,9.50
2018-06-19T15:15:49.060Z,9.43
2018-06-19T15:18:18.813Z,9.80
2018-06-19T15:20:48.455Z,10.90
2018-06-19T15:23:18.139Z,10.48
2018-06-19T15:25:47.770Z,11.07
2018-06-19T15:28:17.389Z,10.90
2018-06-19T15:30:47.072Z,11.77
2018-06-19T15:33:16.704Z,13.28
2018-06-19T15:35:46.324Z,13.20
2018-06-19T15:38:15.999Z,13.90
2018-06-19T15:40:46.096Z,13.38
2018-06-19T15:43:15.758Z,12.67
2018-06-19T15:45:45.388Z,13.73
2018-06-19T15:48:15.148Z,13.47
2018-06-19T15:50:44.775Z,13.32
2018-06-19T15:53:14.416Z,13.58
2018-06-19T15:55:44.079Z,13.77
2018-06-19T15:58:13.735Z,13.87
2018-06-19T16:00:43.364Z,13.65
2018-06-19T16:03:13.040Z,14.10
2018-06-19T16:05:42.675Z,14.50
2018-06-19T16:08:17.193Z,14.27
2018-06-19T16:10:48.088Z,13.53
2018-06-19T16:13:17.768Z,13.70
2018-06-19T16:15:47.401Z,13.67
2018-06-19T16:18:17.156Z,13.83
2018-06-19T16:20:46.780Z,13.37
2018-06-19T16:23:16.408Z,14.07
2018-06-19T16:25:46.060Z,13.85
2018-06-19T16:28:15.701Z,13.55
2018-06-19T16:30:45.344Z,13.65
2018-06-19T16:33:15.032Z,13.43
2018-06-19T16:35:44.800Z,13.50
2018-06-19T16:38:14.509Z,13.70
2018-06-19T16:40:44.120Z,13.32
2018-06-19T16:43:13.767Z,13.38
2018-06-19T16:45:43.418Z,13.18
2018-06-19T16:48:13.419Z,12.50
2018-06-19T16:50:43.040Z,11.90
2018-06-19T16:53:12.672Z,12.93
2018-06-19T16:55:42.482Z,12.45
2018-06-19T16:58:12.096Z,12.80
2018-06-19T17:00:41.725Z,12.50
2018-06-19T17:03:11.444Z,12.23
2018-06-19T17:05:41.074Z,12.53
2018-06-19T17:08:10.732Z,12.97
2018-06-19T17:10:40.403Z,12.75
2018-06-19T17:13:10.042Z,12.37
2018-06-19T17:15:39.682Z,13.70
2018-06-19T17:18:09.352Z,12.93
2018-06-19T17:20:38.977Z,13.23
2018-06-19T17:23:08.599Z,13.43
2018-06-19T17:25:38.269Z,13.20
2018-06-19T17:28:07.918Z,13.60
2018-06-19T17:30:37.593Z,13.20
2018-06-19T17:33:07.545Z,12.43
2018-06-19T17:35:37.177Z,13.13
2018-06-19T17:38:06.821Z,12.47
2018-06-19T17:40:36.514Z,13.07
2018-06-19T17:43:06.396Z,13.10
2018-06-19T17:45:36.067Z,12.73
2018-06-19T17:48:05.726Z,12.73
2018-06-19T17:50:35.372Z,12.93
2018-06-19T17:53:05.045Z,12.90
2018-06-19T17:55:34.672Z,13.17
2018-06-19T17:58:04.349Z,13.50
2018-06-19T18:00:33.995Z,14.60
2018-06-19T18:03:03.628Z,14.30
2018-06-19T18:05:33.312Z,14.60
2018-06-19T18:08:03.000Z,13.87
2018-06-19T18:10:32.854Z,14.53
2018-06-19T18:13:02.516Z,14.83
2018-06-19T18:15:32.206Z,15.60
2018-06-19T18:18:01.827Z,15.43
2018-06-19T18:20:31.493Z,16.10
2018-06-19T18:23:01.203Z,16.57
2018-06-19T18:25:30.815Z,15.27
2018-06-19T18:28:00.485Z,16.17
2018-06-19T18:30:30.104Z,15.90
2018-06-19T18:32:59.739Z,16.37
2018-06-19T18:35:29.394Z,15.03
2018-06-19T18:37:59.040Z,16.10
2018-06-19T18:40:28.652Z,16.73
2018-06-19T18:42:58.339Z,17.50
2018-06-19T18:45:27.976Z,17.00
2018-06-19T18:47:57.603Z,18.13
2018-06-19T18:50:27.323Z,16.17
2018-06-19T18:52:56.971Z,16.50
2018-06-19T18:55:26.628Z,17.37
2018-06-19T18:57:56.304Z,18.40
2018-06-19T19:00:25.960Z,16.73
2018-06-19T19:02:55.641Z,18.07
2018-06-19T19:05:25.364Z,16.47
2018-06-19T19:07:55.020Z,17.60
2018-06-19T19:10:29.947Z,16.77
2018-06-19T19:12:59.624Z,18.13
2018-06-19T19:15:34.452Z,16.27
2018-06-19T19:18:09.323Z,19.13
2018-06-19T19:20:38.987Z,18.57
2018-06-19T19:23:08.621Z,17.87
2018-06-19T19:25:38.308Z,17.57
2018-06-19T19:28:12.988Z,19.07
2018-06-19T19:30:42.675Z,18.97
2018-06-19T19:33:12.330Z,18.77
2018-06-19T19:35:41.976Z,18.97
2018-06-19T19:38:16.992Z,18.43
2018-06-19T19:40:46.692Z,17.43
2018-06-19T19:43:16.396Z,18.40
2018-06-19T19:45:46.043Z,18.77
2018-06-19T19:48:20.936Z,18.97
2018-06-19T19:50:50.776Z,20.00
2018-06-19T19:53:20.610Z,21.10
2018-06-19T19:55:55.364Z,20.23
2018-06-19T19:58:30.369Z,19.93
2018-06-19T20:01:00.074Z,20.20
2018-06-19T20:03:29.740Z,21.07
2018-06-19T20:05:59.438Z,18.70
2018-06-19T20:08:29.156Z,19.30
2018-06-19T20:10:58.816Z,19.00
2018-06-19T20:13:28.540Z,20.20
2018-06-19T20:15:58.188Z,19.43
2018-06-19T20:18:27.868Z,20.87
2018-06-19T20:20:57.563Z,20.43
2018-06-19T20:23:27.227Z,21.73
2018-06-19T20:25:56.893Z,21.93
2018-06-19T20:28:26.606Z,19.60
2018-06-19T20:30:56.270Z,21.17
2018-06-19T20:33:25.900Z,21.87
2018-06-19T20:35:55.591Z,23.47
2018-06-19T20:38:25.240Z,21.60
2018-06-19T20:40:54.911Z,24.70
2018-06-19T20:43:24.631Z,22.27
2018-06-19T20:45:54.287Z,23.73
2018-06-19T20:48:23.951Z,22.47
2018-06-19T20:50:53.849Z,21.83
2018-06-19T20:53:23.559Z,24.67
2018-06-19T20:55:53.232Z,23.70
2018-06-19T20:58:22.883Z,25.03
2018-06-19T21:00:52.552Z,25.57
2018-06-19T21:03:22.240Z,24.07
2018-06-19T21:05:51.889Z,24.43
2018-06-19T21:08:25.168Z,23.03
2018-06-19T21:10:54.812Z,22.50
2018-06-19T21:13:24.476Z,25.77
2018-06-19T21:15:54.175Z,23.77
2018-06-19T21:18:23.815Z,24.40
2018-06-19T21:20:53.437Z,24.17
2018-06-19T21:23:23.124Z,25.47
2018-06-19T21:25:52.784Z,24.93
2018-06-19T21:28:22.465Z,22.73
2018-06-19T21:30:52.111Z,25.93
2018-06-19T21:33:21.771Z,23.60
2018-06-19T21:35:51.463Z,24.53
2018-06-19T21:38:21.091Z,22.30
2018-06-19T21:40:50.812Z,20.50
2018-06-19T21:43:20.524Z,22.13
2018-06-19T21:45:50.608Z,22.43
2018-06-19T21:48:20.311Z,22.73
2018-06-19T21:50:49.983Z,24.13
2018-06-19T21:53:19.651Z,21.50
2018-06-19T21:55:49.331Z,22.63
2018-06-19T21:58:19.172Z,22.30
2018-06-19T22:00:48.863Z,20.10
2018-06-19T22:03:18.567Z,23.00
2018-06-19T22:05:48.206Z,21.80
2018-06-19T22:08:17.853Z,22.57
2018-06-19T22:10:47.536Z,21.53
2018-06-19T22:13:17.183Z,23.33
2018-06-19T22:15:46.866Z,21.07
2018-06-19T22:18:16.563Z,23.40
2018-06-19T22:20:46.211Z,20.93
2018-06-19T22:23:15.880Z,21.83
2018-06-19T22:25:45.600Z,21.60
2018-06-19T22:28:15.244Z,20.47
2018-06-19T22:30:44.887Z,21.77
2018-06-19T22:33:14.675Z,21.77
2018-06-19T22:35:44.329Z,21.10
2018-06-19T22:38:13.967Z,23.83
2018-06-19T22:40:43.659Z,21.60
2018-06-19T22:43:13.297Z,22.80
2018-06-19T22:45:43.012Z,22.17
2018-06-19T22:48:12.852Z,21.87
2018-06-19T22:50:42.648Z,22.73
2018-06-19T22:53:12.420Z,24.10
2018-06-19T22:55:42.096Z,22.93
2018-06-19T22:58:11.808Z,24.27
2018-06-19T23:00:41.591Z,23.30
2018-06-19T23:03:11.336Z,23.93
2018-06-19T23:05:41.117Z,24.87
2018-06-19T23:08:10.829Z,21.67
2018-06-19T23:10:40.556Z,22.33
2018-06-19T23:13:10.335Z,22.77
2018-06-19T23:15:40.027Z,23.67
2018-06-19T23:18:09.785Z,23.63
2018-06-19T23:20:39.584Z,23.97
2018-06-19T23:23:09.249Z,24.23
2018-06-19T23:25:38.911Z,24.67
2018-06-19T23:28:08.656Z,24.90
2018-06-19T23:30:38.316Z,23.53
2018-06-19T23:33:07.976Z,22.87
2018-06-19T23:35:37.664Z,20.23
2018-06-19T23:38:07.395Z,20.83
2018-06-19T23:40:37.092Z,23.97
2018-06-19T23:43:06.765Z,22.60
2018-06-19T23:45:36.412Z,20.47
2018-06-19T23:48:06.116Z,23.20
2018-06-19T23:50:35.769Z,23.03
2018-06-19T23:53:05.418Z,23.53
2018-06-19T23:55:35.112Z,22.07
2018-06-19T23:58:04.841Z,22.07
